Time;durP1;ratioP1;P1;durP2;ratioP2;P2;SDS_P1;SDS_P2;PMS_P1;PMS_P2;Temp;Humidity;BMP_temperature;BMP_pressure;BME280_temperature;BME280_humidity;BME280_pressure;Samples;Min_cycle;Max_cycle;Signal;HPM_P1;HPM_P2
2023/12/25 00:00:29;;;;;;;;;1.00;1.00;;;;;12.61;75.44;101288.81;5092607;27;69513;-55
2023/12/25 00:02:55;;;;;;;;;2.00;2.00;;;;;12.63;75.61;101284.25;5060053;28;47455;-56
2023/12/25 00:05:20;;;;;;;;;4.00;2.33;;;;;12.64;75.57;101293.13;5056548;28;72104;-57
2023/12/25 00:07:45;;;;;;;;;2.00;1.00;;;;;12.64;75.81;101293.13;5059390;28;45481;-56
2023/12/25 00:10:11;;;;;;;;;1.00;1.00;;;;;12.67;75.59;101295.63;5058976;28;45565;-56
2023/12/25 00:12:36;;;;;;;;;2.67;2.00;;;;;12.66;75.79;101291.22;5060137;28;58065;-56
2023/12/25 00:15:01;;;;;;;;;3.00;3.00;;;;;12.65;75.64;101281.53;5060300;28;45284;-56
2023/12/25 00:17:27;;;;;;;;;2.33;2.33;;;;;12.64;75.57;101290.47;5060706;28;45276;-56
2023/12/25 00:19:52;;;;;;;;;1.00;1.00;;;;;12.63;75.67;101292.25;5060400;28;45435;-55
2023/12/25 00:22:18;;;;;;;;;4.00;2.00;;;;;12.63;75.68;101281.56;5051337;28;46183;-56
2023/12/25 00:24:44;;;;;;;;;1.00;1.00;;;;;12.61;75.88;101286.16;5053659;28;70282;-56
2023/12/25 00:27:09;;;;;;;;;1.00;1.00;;;;;12.60;75.89;101275.56;5063922;28;45349;-55
2023/12/25 00:29:34;;;;;;;;;2.33;2.33;;;;;12.58;75.83;101270.31;5059544;28;64560;-56
2023/12/25 00:32:00;;;;;;;;;0.00;0.00;;;;;12.57;76.11;101277.41;5059940;28;45475;-56
2023/12/25 00:34:25;;;;;;;;;3.00;1.00;;;;;12.57;75.92;101277.41;5059104;28;71256;-55
2023/12/25 00:36:50;;;;;;;;;2.00;2.00;;;;;12.57;76.03;101272.09;5058579;28;45330;-55
2023/12/25 00:39:16;;;;;;;;;2.00;2.00;;;;;12.57;75.86;101271.22;5059318;28;68731;-55
2023/12/25 00:41:41;;;;;;;;;1.67;1.67;;;;;12.56;76.17;101277.50;5059967;28;45530;-56
2023/12/25 00:44:06;;;;;;;;;1.33;1.00;;;;;12.57;76.17;101272.09;5041439;28;45269;-56
2023/12/25 00:46:31;;;;;;;;;2.67;2.67;;;;;12.58;76.07;101280.97;5059143;28;69584;-56
2023/12/25 00:48:57;;;;;;;;;4.33;2.00;;;;;12.58;76.27;101276.50;5058723;28;69743;-56
2023/12/25 00:51:23;;;;;;;;;1.33;1.33;;;;;12.58;76.07;101263.16;5061752;28;45348;-55
2023/12/25 00:53:48;;;;;;;;;4.00;4.00;;;;;12.61;76.03;101266.59;5052246;28;45319;-56
2023/12/25 00:56:13;;;;;;;;;3.00;3.00;;;;;12.58;76.34;101264.97;5059794;28;45300;-56
2023/12/25 00:58:39;;;;;;;;;2.67;1.33;;;;;12.58;76.09;101254.28;5057557;28;67828;-56
2023/12/25 01:01:04;;;;;;;;;3.67;1.00;;;;;12.57;76.40;101257.88;5059578;28;46515;-56
2023/12/25 01:03:29;;;;;;;;;3.00;3.00;;;;;12.56;76.21;101273.03;5059139;28;65566;-56
2023/12/25 01:05:55;;;;;;;;;3.00;2.00;;;;;12.56;76.26;101286.34;5051020;28;69259;-56
2023/12/25 01:08:20;;;;;;;;;2.67;2.67;;;;;12.56;76.47;101283.69;5058812;28;69505;-57
2023/12/25 01:10:45;;;;;;;;;5.67;3.00;;;;;12.59;76.15;101282.69;5057539;28;71608;-57
2023/12/25 01:13:10;;;;;;;;;1.33;1.33;;;;;12.58;76.08;101279.16;5057943;28;73486;-57
2023/12/25 01:15:36;;;;;;;;;3.33;2.00;;;;;12.61;76.38;101282.63;5074976;28;68881;-57
2023/12/25 01:18:01;;;;;;;;;5.33;2.00;;;;;12.60;76.23;101272.88;5059483;28;70422;-57
2023/12/25 01:20:26;;;;;;;;;5.00;1.00;;;;;12.58;76.15;101265.81;5059512;28;73064;-57
2023/12/25 01:22:52;;;;;;;;;3.00;1.33;;;;;12.57;76.25;101266.75;5059675;28;44781;-56
2023/12/25 01:25:17;;;;;;;;;3.00;2.00;;;;;12.59;76.10;101272.00;5065848;28;45374;-59
2023/12/25 01:27:42;;;;;;;;;5.33;4.00;;;;;12.57;76.52;101269.41;5058098;28;57291;-57
2023/12/25 01:30:11;;;;;;;;;1.00;1.00;;;;;12.57;76.46;101256.06;5058143;28;73515;-57
2023/12/25 01:32:36;;;;;;;;;2.00;2.00;;;;;12.56;76.59;101261.50;5059364;28;45358;-57
2023/12/25 01:35:02;;;;;;;;;3.00;2.00;;;;;12.57;76.36;101256.06;5058810;28;45273;-58
2023/12/25 01:37:27;;;;;;;;;1.00;1.00;;;;;12.56;76.93;101253.50;5057873;28;45189;-57
2023/12/25 01:39:52;;;;;;;;;2.33;1.00;;;;;12.56;76.39;101243.66;5090553;27;73611;-57
2023/12/25 01:42:18;;;;;;;;;4.00;3.00;;;;;12.53;76.54;101248.31;5058508;28;62167;-57
2023/12/25 01:44:44;;;;;;;;;3.67;1.33;;;;;12.52;76.67;101243.91;5058353;28;68089;-57
2023/12/25 01:47:12;;;;;;;;;3.00;2.00;;;;;12.51;77.01;101234.19;5058651;28;45232;-56
2023/12/25 01:49:37;;;;;;;;;3.00;1.00;;;;;12.53;76.45;101232.31;5057686;28;45736;-57
2023/12/25 01:52:03;;;;;;;;;3.33;1.00;;;;;12.51;76.46;101234.19;5059397;28;72635;-56
2023/12/25 01:54:28;;;;;;;;;2.67;1.00;;;;;12.49;76.78;101225.38;5058905;28;45465;-57
2023/12/25 01:56:54;;;;;;;;;2.00;2.00;;;;;12.47;77.12;101224.63;5058468;28;45336;-57
2023/12/25 01:59:19;;;;;;;;;3.00;1.33;;;;;12.45;77.19;101223.81;5057843;28;74511;-57
2023/12/25 02:01:44;;;;;;;;;5.67;2.00;;;;;12.43;76.86;101231.91;5057760;28;73515;-57
2023/12/25 02:04:10;;;;;;;;;2.67;2.00;;;;;12.40;77.59;101235.59;5057812;28;63791;-57
2023/12/25 02:06:36;;;;;;;;;1.67;1.00;;;;;12.40;77.68;101242.75;5082128;27;59996;-56
2023/12/25 02:09:02;;;;;;;;;1.00;1.00;;;;;12.42;77.30;101243.50;5058325;28;45420;-57
2023/12/25 02:11:28;;;;;;;;;4.00;1.00;;;;;12.40;77.81;101238.25;5057595;28;45189;-57
2023/12/25 02:13:56;;;;;;;;;11.33;2.00;;;;;12.40;77.66;101248.94;5058384;28;45268;-58
2023/12/25 02:16:22;;;;;;;;;2.67;2.00;;;;;12.40;77.83;101243.59;5090418;27;45482;-57
2023/12/25 02:18:48;;;;;;;;;2.67;1.00;;;;;12.43;77.59;101252.41;5090497;27;45535;-57
2023/12/25 02:21:14;;;;;;;;;4.33;2.33;;;;;12.41;77.89;101248.00;5058463;28;45343;-57
2023/12/25 02:23:41;;;;;;;;;1.33;1.00;;;;;12.41;77.78;101250.66;5057918;28;68011;-57
2023/12/25 02:26:07;;;;;;;;;1.00;1.00;;;;;12.40;77.75;101250.75;5062634;28;69381;-56
2023/12/25 02:28:33;;;;;;;;;2.00;2.00;;;;;12.43;77.60;101252.41;5090964;27;45401;-57
2023/12/25 02:30:58;;;;;;;;;4.33;1.33;;;;;12.41;77.85;101242.66;5055718;28;73266;-57
2023/12/25 02:33:24;;;;;;;;;3.00;1.00;;;;;12.41;77.75;101256.00;5059013;28;45158;-57
2023/12/25 02:35:49;;;;;;;;;1.00;1.00;;;;;12.43;77.65;101258.59;5057118;28;71196;-57
2023/12/25 02:38:14;;;;;;;;;2.00;1.00;;;;;12.44;77.82;101262.09;5056425;28;72637;-57
2023/12/25 02:40:40;;;;;;;;;1.00;1.00;;;;;12.44;77.83;101265.66;5057402;28;60462;-56
2023/12/25 02:43:09;;;;;;;;;0.33;0.33;;;;;12.46;78.04;101268.25;5058314;28;45325;-57
2023/12/25 02:45:34;;;;;;;;;1.00;1.00;;;;;12.47;77.83;101276.16;5057384;28;45516;-57
2023/12/25 02:47:59;;;;;;;;;1.00;1.00;;;;;12.49;77.86;101282.28;5056621;28;46138;-57
2023/12/25 02:50:25;;;;;;;;;2.00;2.00;;;;;12.53;77.75;101277.66;5059462;28;72474;-57
2023/12/25 02:52:50;;;;;;;;;1.00;0.33;;;;;12.52;77.59;101274.13;5063921;28;45612;-58
2023/12/25 02:55:16;;;;;;;;;1.00;1.00;;;;;12.54;77.69;101274.03;5060610;28;70875;-57
2023/12/25 02:57:41;;;;;;;;;1.00;1.00;;;;;12.55;77.99;101270.44;5061198;28;60413;-56
2023/12/25 03:00:07;;;;;;;;;4.00;1.00;;;;;12.57;77.89;101263.22;5061273;28;45433;-57
2023/12/25 03:02:32;;;;;;;;;2.00;1.00;;;;;12.58;77.86;101263.16;5094111;27;45565;-57
2023/12/25 03:04:57;;;;;;;;;2.00;1.00;;;;;12.59;77.73;101264.00;5056835;28;45641;-57
2023/12/25 03:07:23;;;;;;;;;3.00;1.00;;;;;12.59;78.05;101264.00;5055729;28;66015;-56
2023/12/25 03:09:48;;;;;;;;;1.00;1.00;;;;;12.58;78.01;101262.28;5060674;28;72025;-58
2023/12/25 03:12:13;;;;;;;;;3.67;2.00;;;;;12.58;78.09;101268.47;5094369;27;45280;-57
2023/12/25 03:14:40;;;;;;;;;2.67;1.33;;;;;12.60;77.49;101264.88;5060499;28;69244;-57
2023/12/25 03:17:06;;;;;;;;;2.33;0.33;;;;;12.58;77.78;101248.94;5093696;27;46495;-57
2023/12/25 03:19:31;;;;;;;;;2.00;2.00;;;;;12.58;78.28;101252.47;5060740;28;65811;-57
2023/12/25 03:21:56;;;;;;;;;1.00;1.00;;;;;12.58;77.99;101257.81;5061166;28;45428;-57
2023/12/25 03:24:22;;;;;;;;;1.00;1.00;;;;;12.58;78.27;101257.81;5060131;28;69280;-56
2023/12/25 03:26:47;;;;;;;;;1.00;1.00;;;;;12.58;78.53;101257.81;5065094;28;72917;-57
2023/12/25 03:29:13;;;;;;;;;1.00;1.00;;;;;12.60;78.30;101256.88;5060696;28;45483;-57
2023/12/25 03:31:38;;;;;;;;;1.33;1.33;;;;;12.59;78.27;101250.66;5061734;28;45643;-56
2023/12/25 03:34:03;;;;;;;;;1.33;1.33;;;;;12.60;78.84;101248.88;5060806;28;45260;-57
2023/12/25 03:36:29;;;;;;;;;1.67;1.00;;;;;12.57;78.71;101247.22;5093981;27;46267;-57
2023/12/25 03:38:54;;;;;;;;;2.00;0.00;;;;;12.57;79.01;101250.75;5059711;28;72174;-57
2023/12/25 03:41:20;;;;;;;;;1.33;1.00;;;;;12.58;78.67;101241.78;5060952;28;51859;-57
2023/12/25 03:43:46;;;;;;;;;2.00;2.00;;;;;12.57;79.00;101248.06;5061132;28;45536;-57
2023/12/25 03:46:11;;;;;;;;;2.00;0.00;;;;;12.56;79.61;101259.69;5060903;28;45571;-55
2023/12/25 03:48:36;;;;;;;;;3.00;1.67;;;;;12.57;78.86;101264.06;5061074;28;45358;-57
2023/12/25 03:51:02;;;;;;;;;1.00;0.67;;;;;12.57;79.07;101249.88;5093527;27;45424;-56
2023/12/25 03:53:27;;;;;;;;;1.00;1.00;;;;;12.58;79.15;101257.81;5061166;28;45491;-57
2023/12/25 03:55:52;;;;;;;;;2.00;0.67;;;;;12.60;79.32;101254.22;5059165;28;74048;-57
2023/12/25 03:58:18;;;;;;;;;2.00;0.33;;;;;12.59;78.92;101245.31;5059648;28;73204;-57
2023/12/25 04:00:44;;;;;;;;;0.00;0.00;;;;;12.56;79.31;101242.81;5059652;28;45721;-57
2023/12/25 04:03:09;;;;;;;;;1.00;1.00;;;;;12.57;79.72;101253.41;5059938;28;61995;-57
2023/12/25 04:05:34;;;;;;;;;2.33;1.00;;;;;12.57;79.53;101260.56;5088587;27;46546;-57
2023/12/25 04:08:00;;;;;;;;;2.00;1.33;;;;;12.58;79.89;101254.28;5056922;28;73162;-57
2023/12/25 04:10:25;;;;;;;;;2.00;2.00;;;;;12.54;79.88;101240.22;5060140;28;58895;-56
2023/12/25 04:12:50;;;;;;;;;1.00;1.00;;;;;12.55;80.23;101238.41;5059334;28;60353;-57
2023/12/25 04:15:16;;;;;;;;;1.00;0.00;;;;;12.53;80.14;101230.50;5059777;28;72468;-57
2023/12/25 04:17:42;;;;;;;;;2.00;1.00;;;;;12.54;80.00;101218.88;5060596;28;45387;-57
2023/12/25 04:20:09;;;;;;;;;1.00;1.00;;;;;12.54;80.32;101213.56;5060145;28;45479;-56
2023/12/25 04:22:34;;;;;;;;;0.00;0.00;;;;;12.53;80.61;101232.31;5060375;28;45335;-56
2023/12/25 04:24:59;;;;;;;;;3.33;1.00;;;;;12.53;80.35;101224.31;5062681;28;67736;-56
2023/12/25 04:27:25;;;;;;;;;0.00;0.00;;;;;12.51;80.28;101219.03;5061208;27;71125;-56
2023/12/25 04:29:51;;;;;;;;;0.00;0.00;;;;;12.52;80.32;101217.25;5058591;28;45484;-55
2023/12/25 04:32:16;;;;;;;;;1.67;1.00;;;;;12.50;80.25;101217.31;5059460;28;69393;-55
2023/12/25 04:34:42;;;;;;;;;2.67;1.00;;;;;12.53;80.27;101222.50;5060216;28;45397;-56
2023/12/25 04:37:07;;;;;;;;;1.00;0.00;;;;;12.54;80.17;101218.00;5059118;28;65689;-56
2023/12/25 04:39:33;;;;;;;;;0.00;0.00;;;;;12.52;80.15;101231.44;5059616;28;63763;-57
2023/12/25 04:41:59;;;;;;;;;0.00;0.00;;;;;12.51;80.31;101224.34;5059793;28;45383;-56
2023/12/25 04:44:24;;;;;;;;;0.33;0.33;;;;;12.49;80.37;101231.59;5060055;28;46547;-56
2023/12/25 04:46:49;;;;;;;;;0.00;0.00;;;;;12.49;80.18;101217.38;5057907;28;57088;-56
2023/12/25 04:49:14;;;;;;;;;1.67;0.00;;;;;12.49;80.50;101230.72;5059745;28;62320;-56
2023/12/25 04:51:40;;;;;;;;;0.33;0.00;;;;;12.49;80.21;101231.59;5059547;28;58590;-56
2023/12/25 04:54:05;;;;;;;;;1.00;1.00;;;;;12.50;80.23;101221.78;5058892;28;73925;-57
2023/12/25 04:56:31;;;;;;;;;0.00;0.00;;;;;12.49;80.38;101228.06;5092401;27;45303;-56
2023/12/25 04:58:56;;;;;;;;;2.00;0.00;;;;;12.48;80.66;101223.69;5059766;28;45480;-56
2023/12/25 05:01:21;;;;;;;;;0.00;0.00;;;;;12.46;81.08;101231.75;5058786;28;70599;-56
2023/12/25 05:03:47;;;;;;;;;0.00;0.00;;;;;12.46;81.13;101228.22;5094176;27;45438;-57
2023/12/25 05:06:12;;;;;;;;;1.00;1.00;;;;;12.46;81.03;101234.41;5050705;28;73583;-56
2023/12/25 05:08:37;;;;;;;;;1.00;0.00;;;;;12.46;81.33;101238.88;5060071;28;45315;-56
2023/12/25 05:11:03;;;;;;;;;0.00;0.00;;;;;12.45;81.01;101240.72;5090635;27;64677;-56
2023/12/25 05:13:30;;;;;;;;;0.00;0.00;;;;;12.46;81.18;101238.88;5057977;28;54213;-57
2023/12/25 05:15:55;;;;;;;;;0.00;0.00;;;;;12.46;81.73;101228.22;5058917;28;45395;-57
2023/12/25 05:18:20;;;;;;;;;0.00;0.00;;;;;12.45;81.12;101227.38;5060046;28;45671;-55
2023/12/25 05:20:46;;;;;;;;;1.00;0.00;;;;;12.46;80.86;101221.06;5059404;28;45710;-56
2023/12/25 05:23:11;;;;;;;;;0.00;0.00;;;;;12.46;81.55;101228.22;5058202;28;74551;-56
2023/12/25 05:25:36;;;;;;;;;2.00;0.00;;;;;12.46;81.29;101221.06;5063765;28;73135;-56
2023/12/25 05:28:02;;;;;;;;;2.00;0.00;;;;;12.48;81.29;101227.19;5058144;28;68289;-56
2023/12/25 05:30:27;;;;;;;;;0.33;0.00;;;;;12.48;81.46;101229.88;5059469;28;45320;-56
2023/12/25 05:32:52;;;;;;;;;0.00;0.00;;;;;12.50;81.26;101228.00;5058522;28;54498;-57
2023/12/25 05:35:18;;;;;;;;;0.00;0.00;;;;;12.52;81.57;101225.25;5057183;28;70626;-56
2023/12/25 05:37:43;;;;;;;;;1.00;0.00;;;;;12.49;81.45;101218.25;5057470;28;60811;-57
2023/12/25 05:40:09;;;;;;;;;0.00;0.00;;;;;12.48;81.58;101215.69;5070749;28;70329;-56
2023/12/25 05:42:34;;;;;;;;;0.00;0.00;;;;;12.49;81.36;101225.38;5057552;28;46559;-56
2023/12/25 05:45:00;;;;;;;;;0.00;0.00;;;;;12.48;81.63;101231.69;5057125;28;48993;-57
2023/12/25 05:47:25;;;;;;;;;0.00;0.00;;;;;12.46;81.69;101222.88;5057774;28;45315;-58
2023/12/25 05:49:52;;;;;;;;;0.00;0.00;;;;;12.45;81.79;101226.47;5090007;27;45437;-56
2023/12/25 05:52:17;;;;;;;;;0.00;0.00;;;;;12.45;82.05;101223.81;5057712;28;45404;-56
2023/12/25 05:54:42;;;;;;;;;1.00;0.00;;;;;12.46;81.54;101215.72;5057051;28;73260;-56
2023/12/25 05:57:08;;;;;;;;;0.00;0.00;;;;;12.45;81.84;101224.69;5057467;28;45732;-56
2023/12/25 05:59:33;;;;;;;;;0.00;0.00;;;;;12.46;82.31;101223.72;5056648;28;69255;-56
2023/12/25 06:01:58;;;;;;;;;0.67;0.00;;;;;12.46;82.25;101229.06;5056498;28;64203;-56
2023/12/25 06:04:23;;;;;;;;;0.67;0.00;;;;;12.46;82.01;101221.06;5056282;28;73347;-56
2023/12/25 06:06:50;;;;;;;;;0.00;0.00;;;;;12.46;82.09;101215.72;5048397;28;63347;-56
2023/12/25 06:09:15;;;;;;;;;0.00;0.00;;;;;12.46;82.45;101225.56;5057276;28;45378;-56
2023/12/25 06:11:40;;;;;;;;;0.00;0.00;;;;;12.46;82.18;101225.56;5055051;28;73036;-55
2023/12/25 06:14:06;;;;;;;;;0.00;0.00;;;;;12.46;82.11;101228.22;5055240;28;45367;-58
2023/12/25 06:16:32;;;;;;;;;0.00;0.00;;;;;12.47;82.01;101228.13;5056328;28;68186;-56
2023/12/25 06:18:57;;;;;;;;;0.33;0.00;;;;;12.46;82.22;101226.41;5088733;27;45412;-57
2023/12/25 06:21:22;;;;;;;;;0.00;0.00;;;;;12.47;82.16;101220.13;5056235;28;75334;-57
2023/12/25 06:23:47;;;;;;;;;0.00;0.00;;;;;12.45;81.93;101235.38;5055189;28;71707;-57
2023/12/25 06:26:13;;;;;;;;;0.00;0.00;;;;;12.44;82.22;101232.75;5061357;28;63308;-56
2023/12/25 06:28:38;;;;;;;;;0.00;0.00;;;;;12.43;82.32;101239.06;5056228;28;69162;-57
2023/12/25 06:31:03;;;;;;;;;0.00;0.00;;;;;12.41;82.39;101237.31;5055968;28;72649;-57
2023/12/25 06:33:29;;;;;;;;;0.00;0.00;;;;;12.43;82.29;101239.06;5065445;27;1121836;-59
2023/12/25 06:35:55;;;;;;;;;0.00;0.00;;;;;12.43;82.33;101242.56;5058284;28;45437;-56
2023/12/25 06:38:20;;;;;;;;;0.00;0.00;;;;;12.44;82.27;101243.44;5091235;27;45386;-56
2023/12/25 06:40:45;;;;;;;;;0.00;0.00;;;;;12.44;82.06;101251.44;5058189;28;45739;-57
2023/12/25 06:43:10;;;;;;;;;0.00;0.00;;;;;12.45;82.11;101242.50;5090702;27;45283;-57
2023/12/25 06:45:36;;;;;;;;;0.33;0.00;;;;;12.45;82.19;101239.81;5058624;28;45489;-55
2023/12/25 06:48:01;;;;;;;;;0.00;0.00;;;;;12.45;82.30;101238.03;5057977;28;45383;-56
2023/12/25 06:50:27;;;;;;;;;0.00;0.00;;;;;12.46;82.31;101246.88;5058185;28;45482;-56
2023/12/25 06:52:52;;;;;;;;;0.00;0.00;;;;;12.47;82.23;101249.47;5059068;28;45321;-55
2023/12/25 06:55:17;;;;;;;;;0.00;0.00;;;;;12.46;82.05;101253.09;5056825;28;45396;-56
2023/12/25 06:57:43;;;;;;;;;3.00;0.00;;;;;12.43;82.17;101249.72;5058147;28;45505;-56
2023/12/25 07:00:10;;;;;;;;;0.00;0.00;;;;;12.43;82.13;101257.72;5057955;28;45397;-56
2023/12/25 07:02:35;;;;;;;;;1.00;0.00;;;;;12.41;82.00;101245.31;5058548;28;45315;-56
2023/12/25 07:05:01;;;;;;;;;0.00;0.00;;;;;12.42;82.35;101259.53;5055142;28;70490;-56
2023/12/25 07:07:26;;;;;;;;;0.00;0.00;;;;;12.44;81.99;101262.97;5050918;28;46925;-56
2023/12/25 07:09:52;;;;;;;;;0.00;0.00;;;;;12.45;82.27;101262.06;5089927;27;45625;-56
2023/12/25 07:12:18;;;;;;;;;0.00;0.00;;;;;12.45;82.46;101259.38;5058483;28;45201;-56
2023/12/25 07:14:45;;;;;;;;;0.00;0.00;;;;;12.46;82.44;101265.56;5057933;28;45537;-56
2023/12/25 07:17:10;;;;;;;;;0.00;0.00;;;;;12.48;82.22;101266.38;5039838;28;47431;-55
2023/12/25 07:19:36;;;;;;;;;1.00;0.00;;;;;12.49;82.40;101276.97;5056806;28;45512;-56
2023/12/25 07:22:01;;;;;;;;;0.00;0.00;;;;;12.50;82.50;101272.47;5073530;27;45804;-55
2023/12/25 07:24:27;;;;;;;;;0.00;0.00;;;;;12.50;82.05;101275.13;5090135;27;45534;-56
2023/12/25 07:26:52;;;;;;;;;0.00;0.00;;;;;12.48;82.17;101280.56;5062435;28;46238;-56
2023/12/25 07:29:18;;;;;;;;;0.00;0.00;;;;;12.48;82.31;101285.91;5055578;28;72258;-56
2023/12/25 07:31:43;;;;;;;;;0.00;0.00;;;;;12.48;82.41;101288.56;5057674;28;45675;-55
2023/12/25 07:34:08;;;;;;;;;0.00;0.00;;;;;12.48;82.35;101285.03;5090230;27;45739;-55
2023/12/25 07:36:34;;;;;;;;;1.00;0.00;;;;;12.48;82.58;101288.56;5060360;28;72828;-56
2023/12/25 07:38:59;;;;;;;;;0.00;0.00;;;;;12.49;82.43;101278.75;5093328;27;45319;-56
2023/12/25 07:41:24;;;;;;;;;0.00;0.00;;;;;12.47;82.41;101297.50;5093035;27;69217;-56
2023/12/25 07:43:50;;;;;;;;;0.00;0.00;;;;;12.48;82.46;101298.38;5059826;28;69466;-57
2023/12/25 07:46:15;;;;;;;;;0.00;0.00;;;;;12.47;82.36;101294.84;5061400;28;45608;-56
2023/12/25 07:48:41;;;;;;;;;1.00;0.00;;;;;12.47;82.26;101299.31;5093609;27;45399;-57
2023/12/25 07:51:06;;;;;;;;;0.00;0.00;;;;;12.47;82.28;101302.84;5060682;28;51528;-56
2023/12/25 07:53:31;;;;;;;;;0.00;0.00;;;;;12.46;82.71;101294.91;5061672;28;67752;-57
2023/12/25 07:55:57;;;;;;;;;0.00;0.00;;;;;12.47;82.12;101297.50;5060344;28;45979;-56
2023/12/25 07:58:22;;;;;;;;;0.00;0.00;;;;;12.48;82.62;101314.41;5060516;28;45319;-57
2023/12/25 08:00:48;;;;;;;;;0.00;0.00;;;;;12.47;82.63;101297.50;5059784;28;45411;-56
2023/12/25 08:03:13;;;;;;;;;0.00;0.00;;;;;12.50;82.65;101293.81;5060456;28;45772;-56
2023/12/25 08:05:39;;;;;;;;;0.00;0.00;;;;;12.49;82.63;101289.41;5060754;28;46523;-56
2023/12/25 08:08:07;;;;;;;;;1.33;0.00;;;;;12.49;82.63;101287.63;5061503;28;45392;-56
2023/12/25 08:10:33;;;;;;;;;0.00;0.00;;;;;12.51;82.63;101283.06;5061068;28;45351;-56
2023/12/25 08:13:02;;;;;;;;;0.00;0.00;;;;;12.53;82.31;101291.88;5058932;28;45300;-57
2023/12/25 08:15:30;;;;;;;;;0.00;0.00;;;;;12.55;82.49;101289.13;5060573;28;47223;-57
2023/12/25 08:17:56;;;;;;;;;0.00;0.00;;;;;12.56;82.22;101294.38;5060122;28;45302;-56
2023/12/25 08:20:21;;;;;;;;;0.00;0.00;;;;;12.58;82.19;101289.84;5060986;28;45395;-55
2023/12/25 08:22:47;;;;;;;;;0.00;0.00;;;;;12.59;82.53;101296.00;5058441;28;70408;-57
2023/12/25 08:25:12;;;;;;;;;1.00;0.00;;;;;12.59;82.51;101298.69;5097806;27;45361;-57
2023/12/25 08:27:38;;;;;;;;;1.00;0.00;;;;;12.56;82.25;101297.03;5059787;28;45354;-57
2023/12/25 08:30:04;;;;;;;;;0.00;0.00;;;;;12.55;82.64;101294.44;5059336;28;68273;-57
2023/12/25 08:32:29;;;;;;;;;0.00;0.00;;;;;12.56;82.48;101304.19;5060399;28;45291;-57
2023/12/25 08:34:55;;;;;;;;;0.00;0.00;;;;;12.53;82.58;101296.34;5059407;28;46540;-57
2023/12/25 08:37:20;;;;;;;;;0.00;0.00;;;;;12.53;82.14;101307.88;5059627;28;45231;-57
2023/12/25 08:39:45;;;;;;;;;0.67;0.00;;;;;12.52;82.62;101311.47;5060071;28;51556;-57
2023/12/25 08:42:10;;;;;;;;;0.00;0.00;;;;;12.51;82.55;101309.75;5057423;28;68134;-57
2023/12/25 08:44:36;;;;;;;;;0.00;0.00;;;;;12.52;82.62;101300.81;5059884;28;56504;-57
2023/12/25 08:47:03;;;;;;;;;0.33;0.00;;;;;12.56;82.49;101304.19;5091232;27;45393;-57
2023/12/25 08:49:28;;;;;;;;;0.00;0.00;;;;;12.57;82.46;101319.25;5059501;28;45438;-57
2023/12/25 08:51:53;;;;;;;;;0.00;0.00;;;;;12.60;82.40;101324.44;5092483;27;45365;-57
2023/12/25 08:54:19;;;;;;;;;0.00;0.00;;;;;12.59;82.08;101322.69;5060759;28;74707;-57
2023/12/25 08:56:44;;;;;;;;;0.00;0.00;;;;;12.58;81.86;101321.84;5059038;28;69375;-57
2023/12/25 08:59:09;;;;;;;;;0.00;0.00;;;;;12.55;82.10;101321.13;5059567;28;47739;-57
2023/12/25 09:01:35;;;;;;;;;1.00;0.00;;;;;12.56;82.28;101320.19;5059960;28;45687;-56
2023/12/25 09:04:00;;;;;;;;;0.00;0.00;;;;;12.57;82.00;101325.44;5058124;28;69305;-57
2023/12/25 09:06:25;;;;;;;;;0.00;0.00;;;;;12.57;82.07;101325.44;5084683;27;45370;-57
2023/12/25 09:08:51;;;;;;;;;0.00;0.00;;;;;12.60;82.05;101323.59;5058470;28;68131;-58
2023/12/25 09:11:17;;;;;;;;;0.00;0.00;;;;;12.62;81.66;101333.25;5059988;28;45335;-58
2023/12/25 09:13:43;;;;;;;;;0.00;0.00;;;;;12.62;81.78;101337.69;5058291;28;46384;-56
2023/12/25 09:16:08;;;;;;;;;0.00;0.00;;;;;12.60;81.48;101331.59;5057929;28;45454;-57
2023/12/25 09:18:34;;;;;;;;;0.00;0.00;;;;;12.58;81.42;101335.19;5059858;28;45375;-56
2023/12/25 09:20:59;;;;;;;;;0.00;0.00;;;;;12.59;81.12;101336.03;5059313;28;45296;-56
2023/12/25 09:23:25;;;;;;;;;0.00;0.00;;;;;12.62;81.17;101337.69;5071212;28;70791;-56
2023/12/25 09:25:50;;;;;;;;;0.00;0.00;;;;;12.66;81.26;101344.59;5062658;28;60295;-55
2023/12/25 09:28:16;;;;;;;;;0.00;0.00;;;;;12.71;81.34;101350.56;5058755;28;65366;-56
2023/12/25 09:30:41;;;;;;;;;0.00;0.00;;;;;12.74;80.92;101348.63;5059388;28;45446;-56
2023/12/25 09:33:06;;;;;;;;;0.00;0.00;;;;;12.77;80.52;101344.09;5057820;28;45378;-55
2023/12/25 09:35:32;;;;;;;;;1.00;0.00;;;;;12.81;80.17;101348.31;5058041;28;72323;-55
2023/12/25 09:37:58;;;;;;;;;0.00;0.00;;;;;12.84;79.81;101356.16;5059129;28;45245;-56
2023/12/25 09:40:23;;;;;;;;;0.00;0.00;;;;;12.87;79.60;101353.34;5058959;28;45363;-56
2023/12/25 09:42:49;;;;;;;;;0.00;0.00;;;;;12.93;80.15;101357.50;5058444;28;63432;-56
2023/12/25 09:45:16;;;;;;;;;0.00;0.00;;;;;12.98;79.66;101355.47;5091522;27;45388;-55
2023/12/25 09:47:42;;;;;;;;;0.00;0.00;;;;;13.01;79.50;101355.31;5042321;28;45356;-55
2023/12/25 09:50:08;;;;;;;;;0.00;0.00;;;;;13.01;79.04;101357.97;5056303;28;45580;-56
2023/12/25 09:52:33;;;;;;;;;0.00;0.00;;;;;13.02;79.13;101360.59;5059397;28;45355;-56
2023/12/25 09:54:59;;;;;;;;;0.00;0.00;;;;;13.02;79.20;101359.72;5058973;28;45565;-56
2023/12/25 09:57:26;;;;;;;;;0.00;0.00;;;;;13.02;79.05;101357.91;5091697;27;45224;-56
2023/12/25 09:59:52;;;;;;;;;0.33;0.00;;;;;13.05;79.26;101363.09;5090147;27;45660;-56
2023/12/25 10:02:21;;;;;;;;;0.00;0.00;;;;;13.08;79.13;101360.25;5057673;28;45492;-56
2023/12/25 10:04:48;;;;;;;;;0.00;0.00;;;;;13.05;78.64;101360.41;5057938;28;45311;-56
2023/12/25 10:07:13;;;;;;;;;0.00;0.00;;;;;13.06;78.53;101354.13;5057821;28;45253;-56
2023/12/25 10:09:39;;;;;;;;;0.00;0.00;;;;;13.11;79.04;101358.38;5058788;28;45335;-56
2023/12/25 10:12:06;;;;;;;;;0.00;0.00;;;;;13.16;78.76;101356.34;5058852;28;46062;-56
2023/12/25 10:14:31;;;;;;;;;0.00;0.00;;;;;13.24;78.94;101348.78;5091250;27;45453;-56
2023/12/25 10:16:58;;;;;;;;;0.67;0.67;;;;;13.31;78.78;101351.97;5058710;28;45318;-56
2023/12/25 10:19:23;;;;;;;;;2.00;0.00;;;;;13.37;78.51;101359.72;5059201;28;45224;-56
2023/12/25 10:21:52;;;;;;;;;0.00;0.00;;;;;13.44;78.83;101362.91;5058269;28;46360;-56
2023/12/25 10:24:17;;;;;;;;;0.00;0.00;;;;;13.46;78.45;101358.38;5058385;28;45368;-56
2023/12/25 10:26:46;;;;;;;;;0.00;0.00;;;;;13.46;78.20;101361.03;5063247;28;68233;-56
2023/12/25 10:29:11;;;;;;;;;0.00;0.00;;;;;13.44;78.53;101363.78;5058041;28;45607;-56
2023/12/25 10:31:44;;;;;;;;;0.00;0.00;;;;;13.43;78.49;101363.84;5059128;28;46046;-57
2023/12/25 10:34:09;;;;;;;;;0.00;0.00;;;;;13.45;78.76;101361.97;5056652;28;45287;-57
2023/12/25 10:36:35;;;;;;;;;0.00;0.00;;;;;13.44;78.81;101362.91;5057457;28;45697;-57
2023/12/25 10:39:00;;;;;;;;;0.00;0.00;;;;;13.40;79.07;101362.22;5056718;28;45240;-56
2023/12/25 10:41:33;;;;;;;;;0.33;0.00;;;;;13.35;78.95;101359.75;5090934;27;62883;-57
2023/12/25 10:44:00;;;;;;;;;0.00;0.00;;;;;13.31;79.36;101357.31;5055893;28;45950;-56
2023/12/25 10:46:27;;;;;;;;;0.00;0.00;;;;;13.27;79.13;101353.97;5056804;28;46516;-56
2023/12/25 10:48:53;;;;;;;;;0.00;0.00;;;;;13.21;79.72;101354.28;5057460;28;45517;-56
2023/12/25 10:51:30;;;;;;;;;1.67;0.00;;;;;13.17;79.70;101350.91;5057809;28;45572;-55
2023/12/25 10:53:59;;;;;;;;;0.00;0.00;;;;;13.14;79.65;101339.50;5057819;28;45553;-56
2023/12/25 10:56:25;;;;;;;;;0.00;0.00;;;;;13.10;80.32;101337.94;5055002;28;45322;-56
2023/12/25 10:58:51;;;;;;;;;0.00;0.00;;;;;13.10;80.82;101337.94;5051831;28;45284;-56
2023/12/25 11:01:24;;;;;;;;;1.00;1.00;;;;;13.12;80.60;101328.06;5054833;28;46878;-56
2023/12/25 11:03:50;;;;;;;;;0.33;0.00;;;;;13.14;81.10;101339.50;5057444;28;45378;-56
2023/12/25 11:06:16;;;;;;;;;0.00;0.00;;;;;13.10;80.41;101332.59;5056025;28;45384;-56
2023/12/25 11:08:43;;;;;;;;;0.00;0.00;;;;;13.06;81.08;101332.78;5054781;28;45442;-56
2023/12/25 11:11:09;;;;;;;;;0.00;0.00;;;;;13.05;81.48;101328.38;5057041;28;46353;-56
2023/12/25 11:13:35;;;;;;;;;0.33;0.00;;;;;13.04;81.37;101339.13;5057762;28;45454;-56
2023/12/25 11:16:00;;;;;;;;;0.00;0.00;;;;;13.00;81.39;101332.22;5059681;28;69571;-55